sensor_id;sensor_type;location;lat;lon;timestamp;pressure;altitude;pressure_sealevel;temperature;humidity
77323;BME280;66384;51.052;9.850;2023-03-21T00:01:16;98736.50;;;8.61;64.04
77323;BME280;66384;51.052;9.850;2023-03-21T00:03:45;98730.21;;;8.62;64.17
77323;BME280;66384;51.052;9.850;2023-03-21T00:06:16;98726.84;;;8.64;64.01
77323;BME280;66384;51.052;9.850;2023-03-21T00:08:45;98724.17;;;8.67;64.05
77323;BME280;66384;51.052;9.850;2023-03-21T00:11:14;98725.07;;;8.68;64.04
77323;BME280;66384;51.052;9.850;2023-03-21T00:13:43;98726.08;;;8.67;63.67
77323;BME280;66384;51.052;9.850;2023-03-21T00:16:14;98726.75;;;8.67;63.87
77323;BME280;66384;51.052;9.850;2023-03-21T00:18:45;98724.58;;;8.69;63.91
77323;BME280;66384;51.052;9.850;2023-03-21T00:21:17;98729.05;;;8.69;63.81
77323;BME280;66384;51.052;9.850;2023-03-21T00:23:47;98726.12;;;8.69;63.75
77323;BME280;66384;51.052;9.850;2023-03-21T00:26:16;98725.25;;;8.68;63.88
77323;BME280;66384;51.052;9.850;2023-03-21T00:28:45;98728.88;;;8.69;63.92
77323;BME280;66384;51.052;9.850;2023-03-21T00:31:15;98723.38;;;8.69;64.17
77323;BME280;66384;51.052;9.850;2023-03-21T00:33:44;98723.89;;;8.69;64.03
77323;BME280;66384;51.052;9.850;2023-03-21T00:36:14;98724.44;;;8.70;64.08
77323;BME280;66384;51.052;9.850;2023-03-21T00:38:43;98721.73;;;8.70;63.95
77323;BME280;66384;51.052;9.850;2023-03-21T00:41:13;98719.58;;;8.72;64.17
77323;BME280;66384;51.052;9.850;2023-03-21T00:43:42;98715.96;;;8.73;63.97
77323;BME280;66384;51.052;9.850;2023-03-21T00:46:11;98717.10;;;8.71;64.14
77323;BME280;66384;51.052;9.850;2023-03-21T00:48:41;98712.73;;;8.68;63.91
77323;BME280;66384;51.052;9.850;2023-03-21T00:51:18;98708.83;;;8.64;63.98
77323;BME280;66384;51.052;9.850;2023-03-21T00:53:54;98710.00;;;8.58;63.90
77323;BME280;66384;51.052;9.850;2023-03-21T00:56:23;98709.52;;;8.54;64.14
77323;BME280;66384;51.052;9.850;2023-03-21T00:58:53;98704.19;;;8.49;64.17
77323;BME280;66384;51.052;9.850;2023-03-21T01:01:22;98702.13;;;8.43;64.01
77323;BME280;66384;51.052;9.850;2023-03-21T01:03:51;98698.80;;;8.37;64.24
77323;BME280;66384;51.052;9.850;2023-03-21T01:06:34;98695.05;;;8.33;64.38
77323;BME280;66384;51.052;9.850;2023-03-21T01:09:07;98693.11;;;8.32;64.33
77323;BME280;66384;51.052;9.850;2023-03-21T01:11:39;98690.98;;;8.29;64.18
77323;BME280;66384;51.052;9.850;2023-03-21T01:14:09;98693.02;;;8.29;64.48
77323;BME280;66384;51.052;9.850;2023-03-21T01:16:38;98690.90;;;8.27;64.45
77323;BME280;66384;51.052;9.850;2023-03-21T01:19:10;98689.98;;;8.26;64.27
77323;BME280;66384;51.052;9.850;2023-03-21T01:21:40;98688.19;;;8.23;64.34
77323;BME280;66384;51.052;9.850;2023-03-21T01:24:10;98685.27;;;8.23;64.31
77323;BME280;66384;51.052;9.850;2023-03-21T01:26:39;98686.09;;;8.22;64.21
77323;BME280;66384;51.052;9.850;2023-03-21T01:29:08;98683.20;;;8.23;64.35
77323;BME280;66384;51.052;9.850;2023-03-21T01:31:38;98682.25;;;8.25;64.28
77323;BME280;66384;51.052;9.850;2023-03-21T01:34:07;98684.70;;;8.26;64.18
77323;BME280;66384;51.052;9.850;2023-03-21T01:36:36;98686.27;;;8.28;64.47
77323;BME280;66384;51.052;9.850;2023-03-21T01:39:06;98686.81;;;8.28;64.27
77323;BME280;66384;51.052;9.850;2023-03-21T01:41:38;98685.23;;;8.27;64.37
77323;BME280;66384;51.052;9.850;2023-03-21T01:44:08;98684.36;;;8.27;64.17
77323;BME280;66384;51.052;9.850;2023-03-21T01:46:41;98680.71;;;8.25;64.21
77323;BME280;66384;51.052;9.850;2023-03-21T01:49:17;98680.88;;;8.25;64.28
77323;BME280;66384;51.052;9.850;2023-03-21T01:51:50;98678.33;;;8.25;64.35
77323;BME280;66384;51.052;9.850;2023-03-21T01:54:24;98676.83;;;8.27;64.07
77323;BME280;66384;51.052;9.850;2023-03-21T01:56:57;98670.41;;;8.25;64.11
77323;BME280;66384;51.052;9.850;2023-03-21T01:59:30;98673.50;;;8.25;64.24
77323;BME280;66384;51.052;9.850;2023-03-21T02:02:03;98673.47;;;8.24;64.09
77323;BME280;66384;51.052;9.850;2023-03-21T02:04:38;98674.66;;;8.23;64.15
77323;BME280;66384;51.052;9.850;2023-03-21T02:07:11;98671.73;;;8.23;64.32
77323;BME280;66384;51.052;9.850;2023-03-21T02:09:46;98671.73;;;8.23;64.37
77323;BME280;66384;51.052;9.850;2023-03-21T02:12:16;98667.97;;;8.23;64.14
77323;BME280;66384;51.052;9.850;2023-03-21T02:14:48;98668.15;;;8.23;64.22
77323;BME280;66384;51.052;9.850;2023-03-21T02:17:22;98668.86;;;8.24;64.49
77323;BME280;66384;51.052;9.850;2023-03-21T02:20:19;98666.00;;;8.26;64.34
77323;BME280;66384;51.052;9.850;2023-03-21T02:23:25;98662.92;;;8.26;64.41
77323;BME280;66384;51.052;9.850;2023-03-21T02:29:06;98650.37;;;8.29;64.25
77323;BME280;66384;51.052;9.850;2023-03-21T02:31:48;98645.90;;;8.29;64.23
77323;BME280;66384;51.052;9.850;2023-03-21T02:34:41;98642.65;;;8.29;64.32
77323;BME280;66384;51.052;9.850;2023-03-21T02:37:20;98644.95;;;8.26;64.18
77323;BME280;66384;51.052;9.850;2023-03-21T02:39:57;98641.86;;;8.21;64.23
77323;BME280;66384;51.052;9.850;2023-03-21T02:42:35;98639.72;;;8.18;64.23
77323;BME280;66384;51.052;9.850;2023-03-21T02:45:14;98636.39;;;8.16;64.29
77323;BME280;66384;51.052;9.850;2023-03-21T02:47:44;98632.67;;;8.13;64.54
77323;BME280;66384;51.052;9.850;2023-03-21T02:50:18;98634.66;;;8.11;64.47
77323;BME280;66384;51.052;9.850;2023-03-21T02:52:52;98634.77;;;8.09;64.79
77323;BME280;66384;51.052;9.850;2023-03-21T02:55:25;98632.18;;;8.09;64.71
77323;BME280;66384;51.052;9.850;2023-03-21T02:57:56;98624.76;;;8.07;64.66
77323;BME280;66384;51.052;9.850;2023-03-21T03:00:28;98620.43;;;8.06;64.72
77323;BME280;66384;51.052;9.850;2023-03-21T03:02:58;98613.37;;;8.05;64.78
77323;BME280;66384;51.052;9.850;2023-03-21T03:05:30;98611.94;;;8.03;64.83
77323;BME280;66384;51.052;9.850;2023-03-21T03:08:09;98613.27;;;8.02;64.89
77323;BME280;66384;51.052;9.850;2023-03-21T03:10:52;98620.75;;;8.00;64.84
77323;BME280;66384;51.052;9.850;2023-03-21T03:13:33;98614.51;;;7.98;64.93
77323;BME280;66384;51.052;9.850;2023-03-21T03:16:14;98610.88;;;7.97;65.15
77323;BME280;66384;51.052;9.850;2023-03-21T03:18:53;98612.59;;;7.97;64.98
77323;BME280;66384;51.052;9.850;2023-03-21T03:21:27;98613.95;;;7.97;65.03
77323;BME280;66384;51.052;9.850;2023-03-21T03:24:02;98616.74;;;7.98;65.00
77323;BME280;66384;51.052;9.850;2023-03-21T03:26:37;98621.42;;;8.00;65.02
77323;BME280;66384;51.052;9.850;2023-03-21T03:29:10;98624.04;;;8.01;64.88
77323;BME280;66384;51.052;9.850;2023-03-21T03:31:44;98620.29;;;8.02;64.86
77323;BME280;66384;51.052;9.850;2023-03-21T03:34:17;98623.86;;;8.01;64.64
77323;BME280;66384;51.052;9.850;2023-03-21T03:36:53;98620.83;;;8.02;64.82
77323;BME280;66384;51.052;9.850;2023-03-21T03:39:29;98616.37;;;8.02;64.96
77323;BME280;66384;51.052;9.850;2023-03-21T03:42:04;98615.05;;;8.04;64.93
77323;BME280;66384;51.052;9.850;2023-03-21T03:44:35;98614.77;;;8.06;64.91
77323;BME280;66384;51.052;9.850;2023-03-21T03:47:07;98609.98;;;8.06;64.81
77323;BME280;66384;51.052;9.850;2023-03-21T03:49:40;98610.31;;;8.05;64.80
77323;BME280;66384;51.052;9.850;2023-03-21T03:52:17;98610.27;;;8.04;64.95
77323;BME280;66384;51.052;9.850;2023-03-21T03:54:49;98609.23;;;7.99;64.95
77323;BME280;66384;51.052;9.850;2023-03-21T03:57:19;98604.37;;;7.97;64.96
77323;BME280;66384;51.052;9.850;2023-03-21T03:59:49;98605.56;;;7.97;65.00
77323;BME280;66384;51.052;9.850;2023-03-21T04:02:18;98603.11;;;7.95;65.11
77323;BME280;66384;51.052;9.850;2023-03-21T04:04:48;98603.92;;;7.94;65.01
77323;BME280;66384;51.052;9.850;2023-03-21T04:07:20;98602.89;;;7.94;65.23
77323;BME280;66384;51.052;9.850;2023-03-21T04:09:49;98603.08;;;7.94;65.08
77323;BME280;66384;51.052;9.850;2023-03-21T04:12:19;98605.65;;;7.94;65.24
77323;BME280;66384;51.052;9.850;2023-03-21T04:14:48;98602.41;;;7.95;65.34
77323;BME280;66384;51.052;9.850;2023-03-21T04:17:18;98604.36;;;7.97;65.19
77323;BME280;66384;51.052;9.850;2023-03-21T04:19:48;98606.59;;;7.97;65.23
77323;BME280;66384;51.052;9.850;2023-03-21T04:22:18;98607.97;;;7.97;65.23
77323;BME280;66384;51.052;9.850;2023-03-21T04:24:47;98606.77;;;7.97;65.06
77323;BME280;66384;51.052;9.850;2023-03-21T04:27:17;98604.37;;;7.97;65.02
77323;BME280;66384;51.052;9.850;2023-03-21T04:29:47;98605.77;;;7.98;65.28
77323;BME280;66384;51.052;9.850;2023-03-21T04:32:16;98609.25;;;8.00;65.28
77323;BME280;66384;51.052;9.850;2023-03-21T04:34:46;98605.16;;;8.00;65.16
77323;BME280;66384;51.052;9.850;2023-03-21T04:37:17;98603.48;;;8.01;65.25
77323;BME280;66384;51.052;9.850;2023-03-21T04:39:46;98604.55;;;8.03;65.40
77323;BME280;66384;51.052;9.850;2023-03-21T04:42:16;98601.98;;;8.02;65.12
77323;BME280;66384;51.052;9.850;2023-03-21T04:44:46;98601.48;;;8.03;65.39
77323;BME280;66384;51.052;9.850;2023-03-21T04:47:16;98598.58;;;8.03;65.36
77323;BME280;66384;51.052;9.850;2023-03-21T04:49:47;98601.33;;;8.03;65.47
77323;BME280;66384;51.052;9.850;2023-03-21T04:52:16;98601.35;;;8.04;65.16
77323;BME280;66384;51.052;9.850;2023-03-21T04:54:45;98597.22;;;8.03;65.41
77323;BME280;66384;51.052;9.850;2023-03-21T04:57:15;98595.32;;;8.03;65.39
77323;BME280;66384;51.052;9.850;2023-03-21T04:59:44;98592.74;;;8.02;65.59
77323;BME280;66384;51.052;9.850;2023-03-21T05:02:13;98594.54;;;8.00;65.41
77323;BME280;66384;51.052;9.850;2023-03-21T05:04:42;98595.21;;;8.00;65.58
77323;BME280;66384;51.052;9.850;2023-03-21T05:07:12;98593.82;;;7.99;65.59
77323;BME280;66384;51.052;9.850;2023-03-21T05:09:41;98591.41;;;7.98;65.36
77323;BME280;66384;51.052;9.850;2023-03-21T05:12:11;98592.09;;;7.98;65.72
77323;BME280;66384;51.052;9.850;2023-03-21T05:14:40;98592.46;;;7.99;65.45
77323;BME280;66384;51.052;9.850;2023-03-21T05:17:10;98595.38;;;7.99;65.50
77323;BME280;66384;51.052;9.850;2023-03-21T05:19:52;98593.73;;;8.01;65.64
77323;BME280;66384;51.052;9.850;2023-03-21T05:22:24;98594.39;;;8.01;65.70
77323;BME280;66384;51.052;9.850;2023-03-21T05:24:53;98594.36;;;8.00;65.57
77323;BME280;66384;51.052;9.850;2023-03-21T05:27:23;98597.87;;;7.97;65.58
77323;BME280;66384;51.052;9.850;2023-03-21T05:30:09;98593.48;;;7.94;65.83
77323;BME280;66384;51.052;9.850;2023-03-21T05:32:39;98594.16;;;7.94;65.79
77323;BME280;66384;51.052;9.850;2023-03-21T05:35:09;98592.27;;;7.94;66.05
77323;BME280;66384;51.052;9.850;2023-03-21T05:37:39;98592.27;;;7.94;65.87
77323;BME280;66384;51.052;9.850;2023-03-21T05:40:10;98591.48;;;7.91;66.09
77323;BME280;66384;51.052;9.850;2023-03-21T05:42:40;98586.45;;;7.89;66.03
77323;BME280;66384;51.052;9.850;2023-03-21T05:45:10;98588.83;;;7.88;66.05
77323;BME280;66384;51.052;9.850;2023-03-21T05:47:40;98584.42;;;7.85;66.02
77323;BME280;66384;51.052;9.850;2023-03-21T05:50:12;98584.27;;;7.85;66.25
77323;BME280;66384;51.052;9.850;2023-03-21T05:52:41;98579.45;;;7.85;66.14
77323;BME280;66384;51.052;9.850;2023-03-21T05:55:10;98575.85;;;7.84;66.10
77323;BME280;66384;51.052;9.850;2023-03-21T05:57:40;98584.02;;;7.83;66.13
77323;BME280;66384;51.052;9.850;2023-03-21T06:00:11;98585.60;;;7.85;66.18
77323;BME280;66384;51.052;9.850;2023-03-21T06:02:41;98590.59;;;7.85;66.10
77323;BME280;66384;51.052;9.850;2023-03-21T06:05:11;98591.02;;;7.87;66.10
77323;BME280;66384;51.052;9.850;2023-03-21T06:07:40;98591.11;;;7.90;66.31
77323;BME280;66384;51.052;9.850;2023-03-21T06:10:11;98586.98;;;7.94;66.38
77323;BME280;66384;51.052;9.850;2023-03-21T06:12:41;98589.84;;;7.98;66.59
77323;BME280;66384;51.052;9.850;2023-03-21T06:15:11;98587.42;;;7.97;66.23
77323;BME280;66384;51.052;9.850;2023-03-21T06:17:41;98587.20;;;7.96;66.16
77323;BME280;66384;51.052;9.850;2023-03-21T06:20:12;98591.15;;;7.96;66.13
77323;BME280;66384;51.052;9.850;2023-03-21T06:22:41;98593.66;;;7.94;66.00
77323;BME280;66384;51.052;9.850;2023-03-21T06:25:10;98597.09;;;7.94;66.09
77323;BME280;66384;51.052;9.850;2023-03-21T06:27:40;98595.77;;;7.96;66.22
77323;BME280;66384;51.052;9.850;2023-03-21T06:30:12;98600.50;;;7.99;66.10
77323;BME280;66384;51.052;9.850;2023-03-21T06:32:41;98600.77;;;8.02;65.92
77323;BME280;66384;51.052;9.850;2023-03-21T06:35:10;98600.84;;;8.04;65.85
77323;BME280;66384;51.052;9.850;2023-03-21T06:37:39;98603.52;;;8.07;66.04
77323;BME280;66384;51.052;9.850;2023-03-21T06:40:11;98600.88;;;8.10;65.61
77323;BME280;66384;51.052;9.850;2023-03-21T06:42:39;98598.66;;;8.10;65.61
77323;BME280;66384;51.052;9.850;2023-03-21T06:45:10;98594.89;;;8.10;65.69
77323;BME280;66384;51.052;9.850;2023-03-21T06:47:39;98596.73;;;8.14;65.70
77323;BME280;66384;51.052;9.850;2023-03-21T06:50:10;98598.23;;;8.17;65.52
77323;BME280;66384;51.052;9.850;2023-03-21T06:52:39;98594.94;;;8.22;65.58
77323;BME280;66384;51.052;9.850;2023-03-21T06:55:09;98594.30;;;8.28;65.55
77323;BME280;66384;51.052;9.850;2023-03-21T06:57:39;98592.63;;;8.35;65.16
77323;BME280;66384;51.052;9.850;2023-03-21T07:00:11;98595.54;;;8.39;65.36
77323;BME280;66384;51.052;9.850;2023-03-21T07:02:40;98591.77;;;8.44;65.12
77323;BME280;66384;51.052;9.850;2023-03-21T07:05:10;98595.89;;;8.49;65.09
77323;BME280;66384;51.052;9.850;2023-03-21T07:07:39;98600.52;;;8.54;65.10
77323;BME280;66384;51.052;9.850;2023-03-21T07:10:10;98600.78;;;8.57;65.05
77323;BME280;66384;51.052;9.850;2023-03-21T07:12:40;98605.57;;;8.62;65.13
77323;BME280;66384;51.052;9.850;2023-03-21T07:15:10;98604.61;;;8.64;64.64
77323;BME280;66384;51.052;9.850;2023-03-21T07:17:39;98605.48;;;8.65;64.33
77323;BME280;66384;51.052;9.850;2023-03-21T07:20:10;98605.67;;;8.65;64.61
77323;BME280;66384;51.052;9.850;2023-03-21T07:22:41;98608.17;;;8.69;64.56
77323;BME280;66384;51.052;9.850;2023-03-21T07:25:11;98612.05;;;8.72;64.54
77323;BME280;66384;51.052;9.850;2023-03-21T07:27:40;98607.11;;;8.73;64.53
77323;BME280;66384;51.052;9.850;2023-03-21T07:30:11;98609.50;;;8.73;64.71
77323;BME280;66384;51.052;9.850;2023-03-21T07:32:41;98605.20;;;8.72;64.63
77323;BME280;66384;51.052;9.850;2023-03-21T07:35:14;98603.59;;;8.76;64.67
77323;BME280;66384;51.052;9.850;2023-03-21T07:37:44;98605.08;;;8.79;64.48
77323;BME280;66384;51.052;9.850;2023-03-21T07:40:14;98602.58;;;8.81;64.34
77323;BME280;66384;51.052;9.850;2023-03-21T07:42:43;98599.06;;;8.84;64.60
77323;BME280;66384;51.052;9.850;2023-03-21T07:45:13;98596.77;;;8.88;64.35
77323;BME280;66384;51.052;9.850;2023-03-21T07:47:48;98601.52;;;8.91;64.28
77323;BME280;66384;51.052;9.850;2023-03-21T07:50:17;98598.91;;;8.96;63.88
77323;BME280;66384;51.052;9.850;2023-03-21T07:52:47;98603.47;;;8.99;64.06
77323;BME280;66384;51.052;9.850;2023-03-21T07:55:17;98606.88;;;9.04;63.81
77323;BME280;66384;51.052;9.850;2023-03-21T07:57:46;98603.09;;;9.09;63.93
77323;BME280;66384;51.052;9.850;2023-03-21T08:00:20;98601.22;;;9.15;63.71
77323;BME280;66384;51.052;9.850;2023-03-21T08:02:53;98598.73;;;9.24;63.72
77323;BME280;66384;51.052;9.850;2023-03-21T08:05:23;98596.60;;;9.39;63.43
77323;BME280;66384;51.052;9.850;2023-03-21T08:07:53;98590.05;;;9.56;63.48
77323;BME280;66384;51.052;9.850;2023-03-21T08:10:23;98589.20;;;9.75;63.21
77323;BME280;66384;51.052;9.850;2023-03-21T08:12:53;98585.16;;;9.90;63.01
77323;BME280;66384;51.052;9.850;2023-03-21T08:15:22;98588.51;;;9.99;62.51
77323;BME280;66384;51.052;9.850;2023-03-21T08:17:52;98583.31;;;10.05;62.17
77323;BME280;66384;51.052;9.850;2023-03-21T08:20:22;98584.41;;;10.08;61.96
77323;BME280;66384;51.052;9.850;2023-03-21T08:22:52;98579.61;;;10.08;61.77
77323;BME280;66384;51.052;9.850;2023-03-21T08:25:22;98579.33;;;10.10;61.81
77323;BME280;66384;51.052;9.850;2023-03-21T08:27:52;98578.23;;;10.15;62.08
77323;BME280;66384;51.052;9.850;2023-03-21T08:30:22;98577.14;;;10.19;61.81
77323;BME280;66384;51.052;9.850;2023-03-21T08:32:57;98576.55;;;10.22;61.71
77323;BME280;66384;51.052;9.850;2023-03-21T08:35:27;98578.86;;;10.25;61.63
77323;BME280;66384;51.052;9.850;2023-03-21T08:37:56;98583.13;;;10.30;61.88
77323;BME280;66384;51.052;9.850;2023-03-21T08:40:26;98583.00;;;10.32;61.47
77323;BME280;66384;51.052;9.850;2023-03-21T08:42:55;98581.65;;;10.33;61.56
77323;BME280;66384;51.052;9.850;2023-03-21T08:45:25;98585.16;;;10.35;61.47
77323;BME280;66384;51.052;9.850;2023-03-21T08:47:55;98584.55;;;10.37;61.46
77323;BME280;66384;51.052;9.850;2023-03-21T08:50:25;98584.20;;;10.38;61.31
77323;BME280;66384;51.052;9.850;2023-03-21T08:52:56;98588.30;;;10.38;61.22
77323;BME280;66384;51.052;9.850;2023-03-21T08:55:25;98586.09;;;10.38;61.28
77323;BME280;66384;51.052;9.850;2023-03-21T08:57:55;98582.33;;;10.38;61.15
77323;BME280;66384;51.052;9.850;2023-03-21T09:00:26;98584.92;;;10.39;61.55
77323;BME280;66384;51.052;9.850;2023-03-21T09:02:55;98581.20;;;10.41;61.38
77323;BME280;66384;51.052;9.850;2023-03-21T09:05:25;98580.41;;;10.44;61.44
77323;BME280;66384;51.052;9.850;2023-03-21T09:07:55;98581.83;;;10.46;61.23
77323;BME280;66384;51.052;9.850;2023-03-21T09:10:24;98583.83;;;10.51;61.56
77323;BME280;66384;51.052;9.850;2023-03-21T09:12:55;98583.77;;;10.56;61.33
77323;BME280;66384;51.052;9.850;2023-03-21T09:15:26;98584.09;;;10.61;61.20
77323;BME280;66384;51.052;9.850;2023-03-21T09:17:56;98587.33;;;10.67;61.26
77323;BME280;66384;51.052;9.850;2023-03-21T09:20:40;98589.15;;;10.72;60.85
77323;BME280;66384;51.052;9.850;2023-03-21T09:23:10;98588.07;;;10.77;60.92
77323;BME280;66384;51.052;9.850;2023-03-21T09:25:40;98587.98;;;10.81;60.70
77323;BME280;66384;51.052;9.850;2023-03-21T09:28:10;98587.49;;;10.82;60.36
77323;BME280;66384;51.052;9.850;2023-03-21T09:30:40;98583.20;;;10.82;60.28
77323;BME280;66384;51.052;9.850;2023-03-21T09:33:10;98582.23;;;10.85;60.71
77323;BME280;66384;51.052;9.850;2023-03-21T09:35:52;98584.05;;;10.89;60.76
77323;BME280;66384;51.052;9.850;2023-03-21T09:38:22;98581.39;;;10.93;60.22
77323;BME280;66384;51.052;9.850;2023-03-21T09:41:07;98576.84;;;10.98;60.44
77323;BME280;66384;51.052;9.850;2023-03-21T09:43:48;98575.60;;;11.03;60.57
77323;BME280;66384;51.052;9.850;2023-03-21T09:46:29;98571.81;;;11.11;60.19
77323;BME280;66384;51.052;9.850;2023-03-21T09:49:04;98569.58;;;11.20;60.29
77323;BME280;66384;51.052;9.850;2023-03-21T09:51:41;98569.27;;;11.28;59.96
77323;BME280;66384;51.052;9.850;2023-03-21T09:54:18;98566.00;;;11.37;59.72
77323;BME280;66384;51.052;9.850;2023-03-21T09:56:50;98564.33;;;11.49;59.85
77323;BME280;66384;51.052;9.850;2023-03-21T09:59:26;98563.55;;;11.61;59.82
77323;BME280;66384;51.052;9.850;2023-03-21T10:01:57;98561.73;;;11.73;59.92
77323;BME280;66384;51.052;9.850;2023-03-21T10:04:27;98560.73;;;11.84;59.59
77323;BME280;66384;51.052;9.850;2023-03-21T10:07:01;98559.02;;;11.93;59.33
77323;BME280;66384;51.052;9.850;2023-03-21T10:09:31;98558.65;;;12.00;59.00
77323;BME280;66384;51.052;9.850;2023-03-21T10:12:04;98555.13;;;12.06;58.83
77323;BME280;66384;51.052;9.850;2023-03-21T10:14:36;98557.41;;;12.08;58.79
77323;BME280;66384;51.052;9.850;2023-03-21T10:17:18;98552.45;;;12.10;58.31
77323;BME280;66384;51.052;9.850;2023-03-21T10:19:56;98546.95;;;12.11;58.61
77323;BME280;66384;51.052;9.850;2023-03-21T10:22:30;98547.17;;;12.15;58.73
77323;BME280;66384;51.052;9.850;2023-03-21T10:24:59;98542.34;;;12.15;58.40
77323;BME280;66384;51.052;9.850;2023-03-21T10:27:29;98541.32;;;12.15;58.63
77323;BME280;66384;51.052;9.850;2023-03-21T10:29:59;98537.20;;;12.16;58.28
77323;BME280;66384;51.052;9.850;2023-03-21T10:32:29;98539.77;;;12.15;58.45
77323;BME280;66384;51.052;9.850;2023-03-21T10:34:59;98539.77;;;12.15;58.74
77323;BME280;66384;51.052;9.850;2023-03-21T10:37:31;98538.38;;;12.14;58.79
77323;BME280;66384;51.052;9.850;2023-03-21T10:40:04;98537.14;;;12.12;58.78
77323;BME280;66384;51.052;9.850;2023-03-21T10:42:35;98541.45;;;12.12;58.85
77323;BME280;66384;51.052;9.850;2023-03-21T10:45:15;98540.43;;;12.13;58.79
77323;BME280;66384;51.052;9.850;2023-03-21T10:47:47;98537.38;;;12.16;58.92
77323;BME280;66384;51.052;9.850;2023-03-21T10:50:18;98535.08;;;12.23;58.98
77323;BME280;66384;51.052;9.850;2023-03-21T10:52:55;98535.20;;;12.30;58.98
77323;BME280;66384;51.052;9.850;2023-03-21T10:55:29;98528.95;;;12.38;58.79
77323;BME280;66384;51.052;9.850;2023-03-21T10:58:03;98532.70;;;12.46;58.59
77323;BME280;66384;51.052;9.850;2023-03-21T11:00:37;98528.31;;;12.53;58.57
77323;BME280;66384;51.052;9.850;2023-03-21T11:03:13;98532.58;;;12.60;58.26
77323;BME280;66384;51.052;9.850;2023-03-21T11:05:51;98530.71;;;12.62;58.13
77323;BME280;66384;51.052;9.850;2023-03-21T11:08:21;98529.70;;;12.64;58.28
77323;BME280;66384;51.052;9.850;2023-03-21T11:10:58;98533.54;;;12.66;58.19
77323;BME280;66384;51.052;9.850;2023-03-21T11:13:35;98534.38;;;12.65;57.72
77323;BME280;66384;51.052;9.850;2023-03-21T11:16:08;98535.05;;;12.64;57.94
77323;BME280;66384;51.052;9.850;2023-03-21T11:18:43;98531.23;;;12.62;58.09
77323;BME280;66384;51.052;9.850;2023-03-21T11:21:15;98528.95;;;12.59;58.20
77323;BME280;66384;51.052;9.850;2023-03-21T11:23:46;98526.98;;;12.56;58.33
77323;BME280;66384;51.052;9.850;2023-03-21T11:26:20;98529.92;;;12.56;58.48
77323;BME280;66384;51.052;9.850;2023-03-21T11:28:51;98529.56;;;12.55;58.46
77323;BME280;66384;51.052;9.850;2023-03-21T11:31:21;98529.67;;;12.51;58.43
77323;BME280;66384;51.052;9.850;2023-03-21T11:33:55;98527.21;;;12.48;58.55
77323;BME280;66384;51.052;9.850;2023-03-21T11:36:33;98526.33;;;12.47;58.80
77323;BME280;66384;51.052;9.850;2023-03-21T11:39:17;98524.09;;;12.47;58.83
77323;BME280;66384;51.052;9.850;2023-03-21T11:41:52;98524.94;;;12.46;58.62
77323;BME280;66384;51.052;9.850;2023-03-21T11:44:28;98520.77;;;12.44;58.85
77323;BME280;66384;51.052;9.850;2023-03-21T11:46:58;98515.06;;;12.43;59.22
77323;BME280;66384;51.052;9.850;2023-03-21T11:49:28;98517.10;;;12.41;58.91
77323;BME280;66384;51.052;9.850;2023-03-21T11:52:10;98518.75;;;12.37;58.96
77323;BME280;66384;51.052;9.850;2023-03-21T11:54:58;98515.22;;;12.32;59.29
77323;BME280;66384;51.052;9.850;2023-03-21T11:57:38;98517.73;;;12.26;59.21
77323;BME280;66384;51.052;9.850;2023-03-21T12:00:16;98515.92;;;12.22;59.34
77323;BME280;66384;51.052;9.850;2023-03-21T12:03:07;98512.63;;;12.20;59.43
77323;BME280;66384;51.052;9.850;2023-03-21T12:05:44;98507.23;;;12.17;59.63
77323;BME280;66384;51.052;9.850;2023-03-21T12:08:25;98509.13;;;12.18;59.70
77323;BME280;66384;51.052;9.850;2023-03-21T12:11:02;98509.31;;;12.18;59.93
77323;BME280;66384;51.052;9.850;2023-03-21T12:13:45;98508.30;;;12.19;60.06
77323;BME280;66384;51.052;9.850;2023-03-21T12:16:35;98505.27;;;12.14;60.01
77323;BME280;66384;51.052;9.850;2023-03-21T12:19:14;98501.89;;;12.07;60.08
77323;BME280;66384;51.052;9.850;2023-03-21T12:21:56;98503.03;;;12.05;60.38
77323;BME280;66384;51.052;9.850;2023-03-21T12:24:32;98498.39;;;12.04;60.61
77323;BME280;66384;51.052;9.850;2023-03-21T12:27:13;98499.27;;;12.06;60.42
77323;BME280;66384;51.052;9.850;2023-03-21T12:30:01;98491.52;;;12.07;60.53
77323;BME280;66384;51.052;9.850;2023-03-21T12:32:41;98490.52;;;12.09;60.48
77323;BME280;66384;51.052;9.850;2023-03-21T12:35:24;98489.73;;;12.12;60.99
77323;BME280;66384;51.052;9.850;2023-03-21T12:38:04;98484.41;;;12.14;61.29
77323;BME280;66384;51.052;9.850;2023-03-21T12:40:47;98484.11;;;12.17;61.10
77323;BME280;66384;51.052;9.850;2023-03-21T12:43:32;98485.52;;;12.18;61.27
77323;BME280;66384;51.052;9.850;2023-03-21T12:46:10;98481.04;;;12.18;61.01
77323;BME280;66384;51.052;9.850;2023-03-21T12:48:44;98479.59;;;12.14;61.18
77323;BME280;66384;51.052;9.850;2023-03-21T12:51:19;98476.79;;;12.11;61.37
77323;BME280;66384;51.052;9.850;2023-03-21T12:54:01;98478.88;;;12.13;61.65
77323;BME280;66384;51.052;9.850;2023-03-21T12:56:36;98473.45;;;12.18;61.57
77323;BME280;66384;51.052;9.850;2023-03-21T12:59:17;98474.19;;;12.21;61.34
77323;BME280;66384;51.052;9.850;2023-03-21T13:01:52;98471.22;;;12.19;60.96
77323;BME280;66384;51.052;9.850;2023-03-21T13:04:33;98471.48;;;12.14;60.94
77323;BME280;66384;51.052;9.850;2023-03-21T13:07:06;98465.73;;;12.10;61.14
77323;BME280;66384;51.052;9.850;2023-03-21T13:09:39;98468.05;;;12.04;61.43
77323;BME280;66384;51.052;9.850;2023-03-21T13:12:20;98468.27;;;11.98;61.96
77323;BME280;66384;51.052;9.850;2023-03-21T13:15:06;98462.01;;;11.93;62.63
77323;BME280;66384;51.052;9.850;2023-03-21T13:17:47;98463.17;;;11.92;62.60
77323;BME280;66384;51.052;9.850;2023-03-21T13:20:24;98459.34;;;11.89;62.66
77323;BME280;66384;51.052;9.850;2023-03-21T13:22:55;98454.55;;;11.90;62.75
77323;BME280;66384;51.052;9.850;2023-03-21T13:25:25;98453.34;;;11.91;62.85
77323;BME280;66384;51.052;9.850;2023-03-21T13:27:53;98453.48;;;11.89;63.03
77323;BME280;66384;51.052;9.850;2023-03-21T13:30:25;98450.50;;;11.86;63.09
77323;BME280;66384;51.052;9.850;2023-03-21T13:33:05;98446.83;;;11.84;63.01
77323;BME280;66384;51.052;9.850;2023-03-21T13:35:36;98447.49;;;11.83;63.19
77323;BME280;66384;51.052;9.850;2023-03-21T13:38:13;98443.34;;;11.82;63.29
77323;BME280;66384;51.052;9.850;2023-03-21T13:40:48;98443.20;;;11.83;63.80